Latest Weather Observations for Koolan Island / Koolan Central

IDW60801

Issued at 2:43 pm WST Thursday 18 August 2022 (issued every 10 minutes, with the page automatically refreshed every 10 minutes)

About weather observations | Map of weather stations | Latest weather observations for WA | Other Formats
Station Details ID: 503621 Name: KOOLAN ISLAND (KOOLAN CENTRAL AIRPORT) Lat: -16.12 Lon: 123.74 Height: 163.2 m
Data from the previous 72 hours. | See also: Recent months for locations in Western Australia
Date/Time
WST
Temp
°C
App
Temp
°C
Dew
Point
°C
Rel
Hum
%
Delta-T
°C
Wind Press
QNH
hPa
Press
MSL
hPa
Rain since
9am
mm
Dir  Spd
km/h
Gust
km/h
Spd
kts
Gust
kts
18/02:30pm 28.4 28.0 16.3 47 7.6 NNW 13 19 7 10 1013.5 1012.4 0.0
18/02:00pm 28.7 29.5 17.2 49 7.3 NW 9 13 5 7 1013.9 - 0.0
18/01:30pm 28.1 26.8 13.6 41 8.7 NW 13 20 7 11 1014.3 - 0.0
18/01:00pm 28.1 26.5 11.6 36 9.5 NNW 11 17 6 9 1014.8 - 0.0
18/12:30pm 27.5 26.6 12.7 40 8.7 NNW 9 15 5 8 1015.2 - 0.0
18/12:00pm 28.3 26.7 11.4 35 9.8 NNW 11 17 6 9 1015.7 - 0.0
18/11:30am 27.8 26.7 14.4 43 8.1 NNW 13 19 7 10 1016.1 - 0.0
18/11:00am 27.8 27.4 15.1 46 7.8 NNW 11 17 6 9 1016.5 - 0.0
18/10:30am 28.9 26.2 9.1 29 11.0 SSE 13 17 7 9 1017.0 - 0.0
18/10:00am 28.1 26.6 12.0 36 9.4 SSE 11 15 6 8 1017.4 - 0.0
18/09:30am 27.1 25.9 12.7 41 8.5 SSE 11 15 6 8 1017.7 - 0.0
18/09:00am 26.4 24.0 12.5 42 8.1 SSE 17 19 9 10 1017.7 - 0.0
18/08:30am 25.4 23.3 12.3 44 7.6 SSE 15 19 8 10 1017.6 - 0.0
18/08:00am 24.5 22.2 13.1 49 6.6 SSE 17 20 9 11 1017.4 - 0.0
18/07:30am 24.1 21.1 12.1 47 6.9 SSE 19 20 10 11 1017.1 - 0.0
18/07:00am 23.6 20.4 12.0 48 6.6 SSE 20 22 11 12 1016.8 - 0.0
18/06:30am 23.4 20.2 11.8 48 6.6 SSE 20 22 11 12 1016.5 - 0.0
18/06:00am 22.8 20.2 13.8 57 5.3 SSE 20 24 11 13 1016.4 - 0.0
18/05:30am 23.2 20.4 12.5 51 6.1 SSE 19 20 10 11 1016.0 - 0.0
18/05:00am 23.4 21.4 12.7 51 6.2 SSE 15 17 8 9 1015.7 - 0.0
18/04:30am 23.6 21.3 11.6 47 6.8 SSE 15 17 8 9 1015.4 - 0.0
18/04:00am 24.2 21.8 10.1 41 7.8 S 13 13 7 7 1015.3 - 0.0
18/03:30am 24.3 22.1 9.5 39 8.1 S 11 13 6 7 1015.1 - 0.0
18/03:00am 24.4 22.4 10.3 41 7.8 S 11 13 6 7 1015.2 - 0.0
18/02:30am 24.0 22.5 12.0 47 6.9 SSW 11 13 6 7 1015.5 - 0.0
18/02:00am 24.2 22.2 11.5 45 7.2 SSW 13 17 7 9 1015.7 - 0.0
18/01:30am 24.1 22.5 12.7 49 6.6 SSW 13 15 7 8 1015.8 - 0.0
18/01:00am 24.2 22.7 13.1 50 6.5 SW 13 15 7 8 1016.0 - 0.0
18/12:30am 24.1 22.5 13.9 53 6.0 SW 15 19 8 10 1016.2 - 0.0
18/12:00am 24.5 22.1 12.5 47 6.9 SW 17 20 9 11 1016.3 - 0.0
 
Date/Time
WST
Temp
°C
App
Temp
°C
Dew
Point
°C
Rel
Hum
%
Delta-T
°C
Wind Press
QNH
hPa
Press
MSL
hPa
Rain since
9am
mm
Dir  Spd
km/h
Gust
km/h
Spd
kts
Gust
kts
17/11:30pm 24.3 22.7 13.8 52 6.2 SW 15 17 8 9 1016.2 - 0.0
17/11:00pm 24.5 23.1 14.6 54 5.9 SW 15 17 8 9 1016.1 - 0.0
17/10:30pm 24.1 23.1 17.6 67 4.1 SW 19 20 10 11 1016.1 - 0.0
17/10:00pm 24.0 23.6 18.9 73 3.3 WSW 19 22 10 12 1016.1 - 0.0
17/09:30pm 24.2 24.3 19.1 73 3.3 WSW 17 20 9 11 1016.1 - 0.0
17/09:00pm 24.9 23.7 15.0 54 6.0 WSW 15 19 8 10 1016.0 - 0.0
17/08:30pm 25.1 23.6 15.4 55 5.9 WSW 17 20 9 11 1016.1 - 0.0
17/08:00pm 25.3 23.4 14.1 50 6.7 WSW 17 20 9 11 1016.1 - 0.0
17/07:30pm 26.2 24.8 14.6 48 7.0 SW 15 19 8 10 1015.8 - 0.0
17/07:00pm 27.1 24.3 9.9 34 9.6 SW 15 20 8 11 1015.4 - 0.0
17/06:30pm 27.2 24.0 10.0 34 9.7 SSW 17 24 9 13 1015.1 - 0.0
17/06:00pm 27.4 24.5 9.7 33 9.9 SSW 15 19 8 10 1014.9 - 0.0
17/05:30pm 27.7 24.5 10.0 33 10.0 SW 17 20 9 11 1014.8 - 0.0
17/05:00pm 28.2 25.1 10.4 33 10.1 SW 17 22 9 12 1014.7 - 0.0
17/04:30pm 28.5 25.6 11.1 34 10.0 WSW 17 22 9 12 1014.7 - 0.0
17/04:00pm 28.3 26.0 14.2 42 8.5 W 19 24 10 13 1014.8 - 0.0
17/03:30pm 29.8 28.5 9.9 29 11.3 N 7 13 4 7 1014.9 - 0.0
17/03:00pm 29.4 28.5 11.5 33 10.4 NNW 7 15 4 8 1014.9 - 0.0
17/02:30pm 28.7 28.5 15.6 45 8.1 WSW 11 19 6 10 1014.9 - 0.0
17/02:00pm 28.2 27.8 15.1 44 8.0 WSW 11 17 6 9 1015.1 - 0.0
17/01:30pm 28.3 28.9 15.9 47 7.7 WNW 7 13 4 7 1015.4 - 0.0
17/01:00pm 27.5 28.8 18.5 58 5.8 WNW 9 15 5 8 1015.9 - 0.0
17/12:30pm 27.0 28.5 18.8 60 5.3 NW 9 15 5 8 1016.3 - 0.0
17/12:00pm 26.9 27.2 17.1 55 6.2 NNW 11 19 6 10 1016.7 - 0.0
17/11:30am 27.2 28.0 17.4 55 6.2 NNW 9 15 5 8 1017.1 - 0.0
17/11:00am 26.7 27.3 17.8 58 5.6 NNW 11 15 6 8 1017.7 - 0.0
17/10:30am 26.6 28.4 17.4 57 5.8 NNW 4 11 2 6 1018.1 - 0.0
17/10:00am 26.4 27.3 16.1 53 6.4 SSW 6 9 3 5 1018.4 - 0.0
17/09:30am 25.3 26.8 17.5 62 4.9 SSW 6 9 3 5 1018.7 - 0.0
17/09:00am 24.6 26.2 19.2 72 3.5 S 9 11 5 6 1018.5 - 0.0
17/08:30am 23.9 25.3 19.6 77 2.8 S 11 13 6 7 1018.3 - 0.0
17/08:00am 23.1 24.3 19.9 82 2.1 S 13 15 7 8 1018.2 - 0.0
17/07:30am 22.5 23.7 20.0 86 1.6 S 13 15 7 8 1018.1 - 0.0
17/07:00am 22.0 23.6 19.9 88 1.4 S 11 13 6 7 1017.7 - 0.0
17/06:30am 21.9 24.1 19.6 87 1.5 S 7 9 4 5 1017.4 - 0.0
17/06:00am 21.8 24.2 20.1 90 1.1 S 7 9 4 5 1017.1 - 0.0
17/05:30am 22.3 24.8 19.8 86 1.6 SW 6 9 3 5 1016.6 - 0.0
17/05:00am 22.3 24.3 20.0 87 1.5 SW 9 9 5 5 1016.1 - 0.0
17/04:30am 22.0 24.2 20.5 91 1.0 SW 9 9 5 5 1015.9 - 0.0
17/04:00am 22.2 24.4 20.3 89 1.2 SW 9 11 5 6 1015.7 - 0.0
17/03:30am 21.9 24.1 20.5 92 0.9 SSW 9 9 5 5 1015.7 - 0.0
17/03:00am 22.3 24.6 20.6 90 1.1 SW 9 11 5 6 1015.7 - 0.0
17/02:30am 22.7 25.1 20.0 85 1.7 WSW 7 9 4 5 1015.8 - 0.0
17/02:00am 22.9 24.8 19.7 82 2.1 W 9 11 5 6 1015.8 - 0.0
17/01:30am 22.9 24.5 19.9 83 1.9 WNW 11 11 6 6 1015.8 - 0.0
17/01:00am 22.8 25.5 20.7 88 1.4 W 7 9 4 5 1015.9 - 0.0
17/12:30am 22.8 25.1 20.7 88 1.4 WSW 9 13 5 7 1015.9 - 0.0
17/12:00am 22.9 24.3 20.4 86 1.6 WSW 13 15 7 8 1015.8 - 0.0
 
Date/Time
WST
Temp
°C
App
Temp
°C
Dew
Point
°C
Rel
Hum
%
Delta-T
°C
Wind Press
QNH
hPa
Press
MSL
hPa
Rain since
9am
mm
Dir  Spd
km/h
Gust
km/h
Spd
kts
Gust
kts
16/11:30pm 23.0 24.5 20.5 86 1.6 WSW 13 17 7 9 1015.7 - 0.0
16/11:00pm 23.1 24.6 20.6 86 1.6 SW 13 19 7 10 1015.8 - 0.0
16/10:30pm 23.2 24.8 20.7 86 1.6 WSW 13 17 7 9 1015.8 - 0.0
16/10:00pm 23.3 24.5 20.6 85 1.8 WSW 15 19 8 10 1015.7 - 0.0
16/09:30pm 23.5 24.1 20.2 82 2.1 WSW 17 19 9 10 1015.5 - 0.0
16/09:00pm 23.7 24.3 20.2 81 2.3 WSW 17 19 9 10 1015.4 - 0.0
16/08:30pm 24.0 24.3 19.5 76 2.9 WSW 17 20 9 11 1015.3 - 0.0
16/08:00pm 24.4 23.8 17.6 66 4.3 WSW 17 20 9 11 1015.0 - 0.0
16/07:30pm 24.5 25.1 20.2 77 2.8 WSW 17 20 9 11 1014.9 - 0.0
16/07:00pm 25.1 25.3 17.6 63 4.7 W 13 17 7 9 1014.6 - 0.0
16/06:30pm 25.1 25.9 19.0 69 3.9 W 13 17 7 9 1014.1 - 0.0
16/06:00pm 25.6 26.2 16.7 58 5.5 NW 9 15 5 8 1013.9 - 0.0
16/05:30pm 26.9 25.5 11.0 37 9.1 NW 9 15 5 8 1013.7 - 0.0
16/05:00pm 27.3 27.1 14.7 46 7.6 NW 9 15 5 8 1013.5 - 0.0
16/04:30pm 28.0 28.2 14.3 43 8.3 NW 6 11 3 6 1013.5 - 0.0
16/04:00pm 29.1 27.4 7.7 26 11.7 NNW 6 13 3 7 1013.3 - 0.0
16/03:30pm 28.7 29.5 15.9 45 7.9 WNW 6 13 3 7 1013.3 - 0.0
16/03:00pm 28.1 25.9 7.9 28 11.0 NNW 9 15 5 8 1013.4 - 0.0
16/02:30pm 27.9 25.9 8.7 30 10.6 NNW 9 15 5 8 1013.5 - 0.0
16/02:00pm 27.4 26.3 11.8 38 9.0 NNW 9 15 5 8 1013.7 - 0.0
16/01:30pm 27.6 25.9 11.2 36 9.4 NNW 11 15 6 8 1014.0 - 0.0
16/01:00pm 28.1 27.3 12.8 38 9.0 NNE 9 15 5 8 1014.4 - 0.0
16/12:30pm 26.6 26.3 16.5 54 6.3 NNE 13 17 7 9 1014.9 - 0.0
16/12:00pm 25.8 27.3 20.6 73 3.4 NE 13 19 7 10 1015.3 - 0.0
16/11:30am 25.2 25.9 20.5 75 3.1 NNE 17 20 9 11 1015.7 - 0.0
16/11:00am 26.5 28.8 21.3 73 3.5 NE 11 20 6 11 1016.1 - 0.0
16/10:30am 26.3 28.1 21.1 73 3.5 NE 13 22 7 12 1016.4 - 0.0
16/10:00am 25.2 26.1 20.9 77 2.8 ENE 17 26 9 14 1016.6 - 0.0
16/09:30am 25.4 26.7 20.9 76 3.0 ENE 15 22 8 12 1016.7 - 0.0
16/09:00am 25.3 26.7 21.0 77 2.8 ENE 15 22 8 12 1016.7 - 0.0
16/08:30am 25.1 26.5 21.0 78 2.7 E 15 24 8 13 1016.7 - 0.0
16/08:04am 25.0 26.7 20.9 78 2.7 E 13 22 7 12 1016.3 - 0.0
16/08:00am 25.0 26.8 21.1 79 2.6 E 13 26 7 14 1016.2 - 0.0
16/07:30am 24.2 26.5 22.1 88 1.4 ENE 13 24 7 13 1015.8 - 0.0
16/07:18am 24.2 26.7 22.5 90 1.1 NE 13 20 7 11 1015.5 - 0.0
16/07:00am 24.3 27.0 22.2 88 1.4 NNE 11 17 6 9 1015.1 - 0.0
16/06:55am 24.2 26.3 21.7 86 1.7 NE 13 20 7 11 1015.1 - 0.0
16/06:30am 24.0 25.8 21.1 84 1.9 NNE 13 22 7 12 1014.7 - 0.0
16/06:00am 23.9 25.0 21.2 85 1.8 NNE 17 24 9 13 1014.3 - 0.0
16/05:56am 23.9 25.0 21.2 85 1.8 NNE 17 24 9 13 1014.3 - 0.0
16/05:30am 24.0 24.8 20.7 82 2.2 NNE 17 24 9 13 1013.9 - 0.0
16/05:00am 23.8 25.5 20.9 84 1.9 NE 13 19 7 10 1013.8 - 0.0
16/04:30am 23.8 26.0 21.1 85 1.8 ENE 11 19 6 10 1013.6 - 0.0
16/04:00am 23.5 24.6 21.9 91 1.1 E 19 24 10 13 1013.4 - 0.0
16/03:30am 23.7 23.2 20.8 84 1.9 ESE 24 30 13 16 1013.3 - 0.0
16/03:00am 24.3 22.6 18.0 68 4.0 ESE 24 30 13 16 1013.3 - 0.0
16/02:30am 24.5 21.9 14.9 55 5.8 SE 22 24 12 13 1013.4 - 0.0
16/02:00am 25.3 21.4 12.2 44 7.6 ESE 24 28 13 15 1013.6 - 0.0
16/01:30am 26.5 21.5 8.0 31 10.0 ESE 24 32 13 17 1013.8 - 0.0
16/01:00am 26.5 22.0 8.5 32 9.8 ESE 22 26 12 14 1014.1 - 0.0
16/12:30am 26.8 20.9 4.0 23 11.5 SE 24 26 13 14 1014.2 - 0.0
16/12:00am 27.0 21.0 3.5 22 11.8 SSE 24 28 13 15 1014.1 - 0.0
 
Date/Time
WST
Temp
°C
App
Temp
°C
Dew
Point
°C
Rel
Hum
%
Delta-T
°C
Wind Press
QNH
hPa
Press
MSL
hPa
Rain since
9am
mm
Dir  Spd
km/h
Gust
km/h
Spd
kts
Gust
kts
15/11:30pm 27.4 21.3 2.5 20 12.3 SE 24 28 13 15 1014.1 - 0.0
15/11:00pm 27.8 21.1 1.3 18 12.8 SSE 26 30 14 16 1014.0 - 0.0
15/10:30pm 27.6 21.9 2.6 20 12.4 SSE 22 28 12 15 1014.0 - 0.0
15/10:00pm 28.0 22.3 3.0 20 12.5 SSE 22 30 12 16 1014.0 - 0.0
15/09:30pm 27.5 23.0 6.8 27 11.0 SSE 20 24 11 13 1014.0 - 0.0
15/09:00pm 27.6 23.9 9.4 32 10.1 S 19 24 10 13 1014.0 - 0.0
15/08:30pm 26.8 24.4 11.3 38 8.9 SSW 15 17 8 9 1013.9 - 0.0
15/08:00pm 26.5 24.7 12.2 41 8.3 SSW 13 17 7 9 1013.9 - 0.0
15/07:30pm 26.9 25.4 11.8 39 8.7 SW 11 15 6 8 1013.5 - 0.0
15/07:00pm 27.1 25.5 11.6 38 8.9 SW 11 13 6 7 1013.2 - 0.0
15/06:30pm 26.7 25.9 14.1 46 7.6 SW 11 15 6 8 1012.7 - 0.0
15/06:00pm 27.1 24.8 13.1 42 8.3 WSW 17 19 9 10 1012.5 - 0.0
15/05:30pm 26.6 25.4 16.2 52 6.4 WSW 17 22 9 12 1012.3 - 0.0
15/05:00pm 27.9 24.9 12.7 39 9.0 WSW 20 24 11 13 1012.2 - 0.0
15/04:30pm 27.7 25.7 15.4 47 7.6 W 20 26 11 14 1012.0 - 0.0
15/04:00pm 31.5 28.3 5.1 19 14.0 ESE 11 19 6 10 1012.0 - 0.0
15/03:30pm 31.2 28.7 4.9 19 13.9 E 7 13 4 7 1012.1 - 0.0
15/03:00pm 31.2 28.5 5.6 20 13.6 ENE 9 15 5 8 1012.2 - 0.0

Other formats

Comma delimited format used in spreadsheet applications
http://www.bom.gov.au/fwo/IDW60801/IDW60801.99200.axf

JavaScript Object Notation format (JSON) in row-major order
http://www.bom.gov.au/fwo/IDW60801/IDW60801.99200.json

Data quality

Most of these data are generated automatically and are frequently updated. Quality checks on data are not normally performed. It is possible for incorrect values to appear. Refer to information at About Latest Weather Observations and please check the disclaimer before using these data.